createdAt,value
2023-06-06T00:00:16.865Z,175.44
2023-06-06T00:01:16.847Z,175.87
2023-06-06T00:02:16.889Z,176.83
2023-06-06T00:03:16.875Z,174.94
2023-06-06T00:04:16.855Z,175.15
2023-06-06T00:05:16.835Z,177.55
2023-06-06T00:06:16.816Z,176.76
2023-06-06T00:07:16.788Z,177.67
2023-06-06T00:08:16.809Z,176.97
2023-06-06T00:09:16.794Z,174.88
2023-06-06T00:10:16.814Z,176.58
2023-06-06T00:11:16.774Z,174.63
2023-06-06T00:12:16.757Z,175.84
2023-06-06T00:13:16.765Z,177.06
2023-06-06T00:14:16.763Z,176.78
2023-06-06T00:15:16.784Z,176.68
2023-06-06T00:16:16.795Z,176.44
2023-06-06T00:17:16.754Z,177.05
2023-06-06T00:18:16.879Z,176.20
2023-06-06T00:19:16.711Z,177.25
2023-06-06T00:20:16.741Z,176.52
2023-06-06T00:21:16.703Z,176.67
2023-06-06T00:22:16.725Z,178.03
2023-06-06T00:23:16.688Z,178.64
2023-06-06T00:24:16.697Z,178.71
2023-06-06T00:25:16.711Z,177.34
2023-06-06T00:26:16.674Z,179.19
2023-06-06T00:27:16.660Z,178.50
2023-06-06T00:28:16.673Z,178.74
2023-06-06T00:29:16.652Z,178.38
2023-06-06T00:30:16.645Z,178.95
2023-06-06T00:31:16.681Z,178.21
2023-06-06T00:32:16.650Z,177.95
2023-06-06T00:33:16.649Z,178.43
2023-06-06T00:34:16.643Z,177.85
2023-06-06T00:35:16.636Z,176.50
2023-06-06T00:36:16.627Z,176.57
2023-06-06T00:37:16.660Z,176.17
2023-06-06T00:38:16.645Z,177.06
2023-06-06T00:39:16.689Z,175.97
2023-06-06T00:40:16.775Z,176.89
2023-06-06T00:41:16.950Z,177.48
2023-06-06T00:42:17.101Z,176.55
2023-06-06T00:43:17.250Z,178.30
2023-06-06T00:44:17.504Z,178.96
2023-06-06T00:45:17.631Z,179.27
2023-06-06T00:46:17.835Z,180.50
2023-06-06T00:47:18.013Z,180.54
2023-06-06T00:48:18.229Z,182.29
2023-06-06T00:49:18.421Z,182.86
2023-06-06T00:50:18.623Z,184.80
2023-06-06T00:51:18.728Z,186.72
2023-06-06T00:52:19.028Z,187.76
2023-06-06T00:53:19.095Z,187.62
2023-06-06T00:54:19.285Z,189.34
2023-06-06T00:55:19.447Z,190.81
2023-06-06T00:56:19.727Z,192.65
2023-06-06T00:57:19.933Z,191.88
2023-06-06T00:58:20.121Z,192.96
2023-06-06T00:59:20.232Z,194.17
2023-06-06T01:00:20.391Z,194.65
2023-06-06T01:01:20.577Z,194.33
2023-06-06T01:02:20.589Z,196.29
2023-06-06T01:03:20.558Z,196.47
2023-06-06T01:04:20.543Z,195.39
2023-06-06T01:05:20.638Z,197.98
2023-06-06T01:06:20.514Z,195.43
2023-06-06T01:07:20.527Z,196.41
2023-06-06T01:08:20.503Z,196.82
2023-06-06T01:09:20.516Z,197.38
2023-06-06T01:10:20.499Z,196.02
2023-06-06T01:11:20.502Z,195.61
2023-06-06T01:12:20.468Z,194.59
2023-06-06T01:13:20.453Z,196.55
2023-06-06T01:14:20.513Z,197.83
2023-06-06T01:15:20.517Z,196.40
2023-06-06T01:16:20.544Z,197.68
2023-06-06T01:17:20.480Z,196.84
2023-06-06T01:18:20.488Z,196.95
2023-06-06T01:19:20.493Z,198.83
2023-06-06T01:20:20.563Z,197.92
2023-06-06T01:21:20.530Z,197.27
2023-06-06T01:22:20.536Z,197.00
2023-06-06T01:23:20.596Z,197.87
2023-06-06T01:24:20.542Z,198.05
2023-06-06T01:25:20.661Z,200.14
2023-06-06T01:26:20.500Z,198.46
2023-06-06T01:27:20.495Z,198.28
2023-06-06T01:28:20.504Z,200.18
2023-06-06T01:29:20.478Z,199.52
2023-06-06T01:30:20.474Z,200.10
2023-06-06T01:31:20.517Z,198.30
2023-06-06T01:32:20.526Z,198.82
2023-06-06T01:33:20.461Z,200.32
2023-06-06T01:34:20.457Z,200.28
2023-06-06T01:35:20.435Z,199.77
2023-06-06T01:36:20.442Z,200.16
2023-06-06T01:37:20.472Z,198.67
2023-06-06T01:38:20.495Z,199.11
2023-06-06T01:39:20.522Z,198.95
2023-06-06T01:40:20.503Z,198.95
2023-06-06T01:41:20.476Z,198.91
2023-06-06T01:42:20.434Z,197.54
2023-06-06T01:43:20.441Z,196.91
2023-06-06T01:44:20.448Z,199.12
2023-06-06T01:45:20.420Z,197.18
2023-06-06T01:46:20.460Z,197.70
2023-06-06T01:47:20.470Z,198.38
2023-06-06T01:48:20.402Z,199.11
2023-06-06T01:49:20.393Z,199.04
2023-06-06T01:50:20.387Z,200.16
2023-06-06T01:51:20.398Z,199.41
2023-06-06T01:52:20.384Z,200.50
2023-06-06T01:53:20.371Z,200.82
2023-06-06T01:54:20.360Z,200.63
2023-06-06T01:55:20.361Z,199.61
2023-06-06T01:56:20.340Z,200.40
2023-06-06T01:57:20.352Z,199.52
2023-06-06T01:58:20.385Z,198.09
2023-06-06T01:59:20.350Z,196.89
2023-06-06T02:00:20.340Z,196.60
2023-06-06T02:01:20.358Z,194.62
2023-06-06T02:02:20.466Z,194.19
2023-06-06T02:03:20.357Z,192.14
2023-06-06T02:04:20.298Z,191.68
2023-06-06T02:05:20.334Z,189.96
2023-06-06T02:06:20.288Z,188.61
2023-06-06T02:07:20.290Z,186.05
2023-06-06T02:08:20.272Z,186.14
2023-06-06T02:09:20.279Z,185.33
2023-06-06T02:10:20.282Z,185.12
2023-06-06T02:11:20.252Z,184.28
2023-06-06T02:12:20.278Z,185.46
2023-06-06T02:13:20.255Z,185.45
2023-06-06T02:14:20.243Z,187.36
2023-06-06T02:15:20.227Z,186.57
2023-06-06T02:16:20.293Z,188.32
2023-06-06T02:17:20.312Z,188.36
2023-06-06T02:18:20.227Z,190.35
2023-06-06T02:19:20.219Z,191.11
2023-06-06T02:20:20.219Z,193.24
2023-06-06T02:21:20.192Z,196.37
2023-06-06T02:22:20.187Z,197.57
2023-06-06T02:23:20.179Z,198.39
2023-06-06T02:24:20.210Z,199.42
2023-06-06T02:25:20.259Z,201.87
2023-06-06T02:26:20.243Z,204.34
2023-06-06T02:27:20.253Z,204.28
2023-06-06T02:28:20.252Z,204.74
2023-06-06T02:29:20.290Z,207.46
2023-06-06T02:30:20.289Z,208.12
2023-06-06T02:31:20.421Z,207.88
2023-06-06T02:32:20.451Z,209.29
2023-06-06T02:33:20.473Z,209.51
2023-06-06T02:34:20.466Z,209.73
2023-06-06T02:35:20.454Z,212.00
2023-06-06T02:36:20.491Z,211.61
2023-06-06T02:37:20.494Z,211.85
2023-06-06T02:38:20.648Z,211.23
2023-06-06T02:39:20.592Z,214.28
2023-06-06T02:40:20.597Z,212.85
2023-06-06T02:41:20.628Z,214.33
2023-06-06T02:42:20.642Z,214.28
2023-06-06T02:43:20.709Z,214.16
2023-06-06T02:44:20.779Z,214.76
2023-06-06T02:45:20.766Z,214.73
2023-06-06T02:46:20.853Z,215.10
2023-06-06T02:47:20.784Z,214.47
2023-06-06T02:48:20.817Z,215.65
2023-06-06T02:49:20.815Z,213.61
2023-06-06T02:50:20.812Z,214.63
2023-06-06T02:51:20.819Z,215.74
2023-06-06T02:52:20.849Z,215.39
2023-06-06T02:53:20.847Z,215.67
2023-06-06T02:54:20.957Z,215.17
2023-06-06T02:55:21.110Z,216.64
2023-06-06T02:56:21.246Z,217.44
2023-06-06T02:57:21.372Z,215.79
2023-06-06T02:58:21.498Z,217.15
2023-06-06T02:59:21.646Z,215.60
2023-06-06T03:00:21.829Z,215.65
2023-06-06T03:01:22.026Z,217.63
2023-06-06T03:02:22.194Z,216.57
2023-06-06T03:03:22.266Z,215.70
2023-06-06T03:04:22.533Z,215.43
2023-06-06T03:05:22.606Z,213.74
2023-06-06T03:06:22.729Z,213.58
2023-06-06T03:07:22.906Z,213.02
2023-06-06T03:08:23.076Z,210.17
2023-06-06T03:09:23.251Z,209.48
2023-06-06T03:10:23.405Z,208.11
2023-06-06T03:11:23.388Z,207.47
2023-06-06T03:12:23.414Z,206.07
2023-06-06T03:13:23.373Z,204.66
2023-06-06T03:14:23.389Z,202.42
2023-06-06T03:15:23.360Z,202.56
2023-06-06T03:16:23.411Z,201.52
2023-06-06T03:17:23.446Z,200.96
2023-06-06T03:18:23.350Z,200.45
2023-06-06T03:19:23.355Z,197.58
2023-06-06T03:20:23.363Z,196.75
2023-06-06T03:21:23.321Z,195.14
2023-06-06T03:22:23.385Z,195.38
2023-06-06T03:23:23.430Z,192.86
2023-06-06T03:24:23.364Z,191.86
2023-06-06T03:25:23.374Z,189.62
2023-06-06T03:26:23.350Z,188.20
2023-06-06T03:27:23.365Z,187.16
2023-06-06T03:28:23.357Z,185.93
2023-06-06T03:29:23.336Z,183.46
2023-06-06T03:30:23.340Z,181.39
2023-06-06T03:31:23.436Z,181.48
2023-06-06T03:32:23.461Z,180.35
2023-06-06T03:33:23.314Z,179.65
2023-06-06T03:34:23.329Z,178.54
2023-06-06T03:35:23.317Z,177.51
2023-06-06T03:36:23.306Z,175.44
2023-06-06T03:37:23.289Z,175.80
2023-06-06T03:38:23.290Z,175.48
2023-06-06T03:39:23.311Z,174.38
2023-06-06T03:40:23.301Z,173.70
2023-06-06T03:41:23.316Z,172.33
2023-06-06T03:42:23.285Z,170.08
2023-06-06T03:43:23.275Z,171.96
2023-06-06T03:44:23.274Z,168.72
2023-06-06T03:45:23.253Z,168.56
2023-06-06T03:46:23.293Z,168.60
2023-06-06T03:47:23.285Z,170.13
2023-06-06T03:48:23.242Z,166.26
2023-06-06T03:49:23.249Z,166.72
2023-06-06T03:50:23.253Z,166.85
2023-06-06T03:51:23.265Z,167.61
2023-06-06T03:52:23.255Z,165.27
2023-06-06T03:53:23.224Z,164.04
2023-06-06T03:54:23.208Z,166.43
2023-06-06T03:55:23.189Z,164.42
2023-06-06T03:56:23.178Z,164.76
2023-06-06T03:57:23.184Z,165.83
2023-06-06T03:58:23.165Z,164.35
2023-06-06T03:59:23.180Z,164.90
2023-06-06T04:00:23.141Z,164.29
2023-06-06T04:01:23.183Z,161.15
2023-06-06T04:02:23.295Z,163.94
2023-06-06T04:03:23.426Z,162.93
2023-06-06T04:04:23.174Z,162.33
2023-06-06T04:05:23.108Z,161.14
2023-06-06T04:06:23.119Z,160.62
2023-06-06T04:07:23.184Z,162.28
2023-06-06T04:08:23.097Z,161.23
2023-06-06T04:09:23.110Z,162.07
2023-06-06T04:10:23.091Z,159.82
2023-06-06T04:11:23.062Z,159.74
2023-06-06T04:12:23.065Z,160.34
2023-06-06T04:13:23.050Z,160.24
2023-06-06T04:14:24.537Z,161.92
2023-06-06T04:15:23.048Z,159.95
2023-06-06T04:16:23.168Z,160.93
2023-06-06T04:17:23.046Z,160.08
2023-06-06T04:18:23.038Z,159.86
2023-06-06T04:19:23.051Z,160.46
2023-06-06T04:20:23.009Z,161.11
2023-06-06T04:21:23.037Z,160.15
2023-06-06T04:22:23.015Z,160.07
2023-06-06T04:23:23.051Z,160.51
2023-06-06T04:24:22.984Z,161.31
2023-06-06T04:25:23.009Z,161.71
2023-06-06T04:26:22.988Z,160.12
2023-06-06T04:27:22.984Z,161.95
2023-06-06T04:28:22.998Z,163.38
2023-06-06T04:29:22.989Z,163.91
2023-06-06T04:30:22.960Z,164.09
2023-06-06T04:31:22.986Z,164.56
2023-06-06T04:32:22.931Z,163.72
2023-06-06T04:33:23.033Z,165.74
2023-06-06T04:34:22.933Z,164.98
2023-06-06T04:35:22.936Z,165.18
2023-06-06T04:36:22.925Z,166.93
2023-06-06T04:37:22.921Z,166.23
2023-06-06T04:38:22.897Z,167.84
2023-06-06T04:39:22.954Z,170.43
2023-06-06T04:40:23.121Z,172.17
2023-06-06T04:42:23.230Z,174.84
2023-06-06T04:43:23.265Z,175.70
2023-06-06T04:44:23.310Z,178.96
2023-06-06T04:45:23.298Z,179.27
2023-06-06T04:46:23.879Z,180.51
2023-06-06T04:47:23.397Z,180.56
2023-06-06T04:48:23.341Z,182.73
2023-06-06T04:49:23.350Z,183.09
2023-06-06T04:50:23.331Z,182.60
2023-06-06T04:51:23.367Z,186.22
2023-06-06T04:52:23.353Z,187.93
2023-06-06T04:53:23.387Z,185.04
2023-06-06T04:54:23.427Z,186.00
2023-06-06T04:55:23.422Z,183.94
2023-06-06T04:56:23.455Z,184.29
2023-06-06T04:57:23.468Z,183.01
2023-06-06T04:58:23.465Z,180.02
2023-06-06T04:59:23.657Z,179.48
2023-06-06T05:00:23.554Z,177.74
2023-06-06T05:01:23.586Z,177.36
2023-06-06T05:02:23.660Z,178.18
2023-06-06T05:03:23.723Z,176.23
2023-06-06T05:04:23.664Z,173.84
2023-06-06T05:05:23.690Z,172.48
2023-06-06T05:06:23.720Z,172.22
2023-06-06T05:07:23.735Z,173.19
2023-06-06T05:08:23.769Z,172.91
2023-06-06T05:09:23.789Z,173.58
2023-06-06T05:10:23.822Z,171.08
2023-06-06T05:11:23.864Z,170.45
2023-06-06T05:12:23.909Z,169.92
2023-06-06T05:13:24.030Z,169.92
2023-06-06T05:14:24.030Z,169.15
2023-06-06T05:15:24.108Z,168.45
2023-06-06T05:16:24.193Z,167.87
2023-06-06T05:17:24.228Z,167.56
2023-06-06T05:18:24.221Z,167.87
2023-06-06T05:19:24.292Z,168.02
2023-06-06T05:20:24.332Z,170.30
2023-06-06T05:21:24.370Z,170.83
2023-06-06T05:22:24.407Z,170.15
2023-06-06T05:23:24.469Z,171.27
2023-06-06T05:24:24.498Z,171.97
2023-06-06T05:25:24.559Z,173.76
2023-06-06T05:26:24.640Z,174.69
2023-06-06T05:27:24.675Z,175.92
2023-06-06T05:28:24.717Z,177.31
2023-06-06T05:29:24.759Z,185.66
2023-06-06T05:30:24.869Z,206.57
2023-06-06T05:31:24.911Z,233.23
2023-06-06T05:32:25.729Z,252.38
2023-06-06T05:33:25.002Z,253.32
2023-06-06T05:34:25.024Z,250.00
2023-06-06T05:35:25.037Z,250.00
2023-06-06T05:36:25.042Z,250.30
2023-06-06T05:37:25.089Z,248.64
2023-06-06T05:38:25.099Z,250.00
2023-06-06T05:39:25.123Z,249.27
2023-06-06T05:40:25.144Z,248.55
2023-06-06T05:41:25.128Z,249.28
2023-06-06T05:42:25.140Z,249.79
2023-06-06T05:43:25.104Z,250.00
2023-06-06T05:44:25.214Z,249.78
2023-06-06T05:45:25.125Z,249.54
2023-06-06T05:46:25.107Z,250.00
2023-06-06T05:47:25.183Z,248.59
2023-06-06T05:48:25.152Z,249.73
2023-06-06T05:49:25.300Z,249.25
2023-06-06T05:50:25.216Z,247.79
2023-06-06T05:51:25.276Z,246.64
2023-06-06T05:52:25.275Z,248.21
2023-06-06T05:53:25.321Z,248.31
2023-06-06T05:54:27.059Z,247.36
2023-06-06T05:55:26.335Z,247.28
2023-06-06T05:56:25.329Z,246.11
2023-06-06T05:57:25.327Z,246.21
2023-06-06T05:58:25.312Z,245.99
2023-06-06T05:59:25.318Z,245.04
2023-06-06T06:00:25.304Z,244.43
2023-06-06T06:01:25.319Z,243.44
2023-06-06T06:02:25.347Z,244.27
2023-06-06T06:03:25.461Z,242.44
2023-06-06T06:04:25.301Z,242.44
2023-06-06T06:05:25.282Z,241.15
2023-06-06T06:06:25.318Z,241.01
2023-06-06T06:07:25.362Z,240.16
2023-06-06T06:08:25.439Z,240.35
2023-06-06T06:09:25.509Z,238.57
2023-06-06T06:10:25.539Z,240.91
2023-06-06T06:11:25.644Z,240.89
2023-06-06T06:12:25.673Z,233.92
2023-06-06T06:13:25.740Z,235.09
2023-06-06T06:14:25.814Z,229.22
2023-06-06T06:15:26.200Z,222.83
2023-06-06T06:16:25.951Z,216.32
2023-06-06T06:17:25.946Z,204.01
2023-06-06T06:18:25.971Z,192.78
2023-06-06T06:19:26.010Z,185.46
2023-06-06T06:20:26.239Z,183.34
2023-06-06T06:21:25.984Z,178.36
2023-06-06T06:22:25.995Z,173.59
2023-06-06T06:23:26.030Z,168.91
2023-06-06T06:24:25.996Z,164.98
2023-06-06T06:25:26.058Z,161.86
2023-06-06T06:26:26.046Z,159.56
2023-06-06T06:27:26.077Z,159.78
2023-06-06T06:28:26.059Z,155.34
2023-06-06T06:29:26.264Z,152.14
2023-06-06T06:30:26.127Z,150.43
2023-06-06T06:31:26.124Z,148.96
2023-06-06T06:32:26.204Z,149.66
2023-06-06T06:33:26.199Z,161.38
2023-06-06T06:34:26.116Z,169.56
2023-06-06T06:35:26.175Z,178.04
2023-06-06T06:36:26.168Z,185.69
2023-06-06T06:37:26.168Z,193.90
2023-06-06T06:38:26.343Z,199.07
2023-06-06T06:39:26.816Z,199.44
2023-06-06T06:40:26.343Z,203.57
2023-06-06T06:41:26.408Z,207.23
2023-06-06T06:42:26.421Z,202.23
2023-06-06T06:43:26.494Z,204.18
2023-06-06T06:44:26.535Z,207.89
2023-06-06T06:45:26.732Z,208.60
2023-06-06T06:46:26.636Z,206.37
2023-06-06T06:47:26.667Z,211.20
2023-06-06T06:48:26.683Z,212.54
2023-06-06T06:49:26.756Z,216.46
2023-06-06T06:50:27.250Z,214.95
2023-06-06T06:51:26.866Z,216.16
2023-06-06T06:52:26.899Z,217.17
2023-06-06T06:53:26.956Z,219.18
2023-06-06T06:54:27.003Z,221.37
2023-06-06T06:55:27.280Z,224.85
2023-06-06T06:56:27.123Z,226.11
2023-06-06T06:57:27.130Z,226.20
2023-06-06T06:58:27.222Z,228.60
2023-06-06T06:59:27.232Z,229.34
2023-06-06T07:00:27.283Z,229.67
2023-06-06T07:01:27.378Z,229.42
2023-06-06T07:02:27.377Z,228.91
2023-06-06T07:03:27.391Z,230.88
2023-06-06T07:04:27.403Z,231.28
2023-06-06T07:05:27.878Z,231.79
2023-06-06T07:06:27.481Z,230.79
2023-06-06T07:07:27.504Z,230.42
2023-06-06T07:08:27.572Z,232.38
2023-06-06T07:09:27.593Z,229.20
2023-06-06T07:10:27.755Z,227.45
2023-06-06T07:11:27.725Z,216.08
2023-06-06T07:12:27.677Z,211.00
2023-06-06T07:13:27.724Z,216.28
2023-06-06T07:14:27.794Z,217.49
2023-06-06T07:15:28.229Z,216.75
2023-06-06T07:16:27.836Z,218.16
2023-06-06T07:17:27.942Z,217.31
2023-06-06T07:18:27.906Z,216.37
2023-06-06T07:19:27.939Z,216.40
2023-06-06T07:20:27.954Z,219.18
2023-06-06T07:21:28.112Z,218.36
2023-06-06T07:22:27.988Z,212.15
2023-06-06T07:23:28.048Z,212.84
2023-06-06T07:24:28.055Z,214.60
2023-06-06T07:25:28.320Z,213.95
2023-06-06T07:26:28.094Z,211.05
2023-06-06T07:27:28.107Z,203.53
2023-06-06T07:28:28.123Z,201.47
2023-06-06T07:29:28.143Z,197.92
2023-06-06T07:30:28.241Z,194.88
2023-06-06T07:31:28.200Z,185.07
2023-06-06T07:32:28.260Z,180.80
2023-06-06T07:33:28.172Z,167.55
2023-06-06T07:34:28.203Z,169.39
2023-06-06T07:35:28.233Z,152.98
2023-06-06T07:36:28.248Z,143.85
2023-06-06T07:37:28.271Z,140.77
2023-06-06T07:38:28.321Z,132.56
2023-06-06T07:39:28.314Z,127.35
2023-06-06T07:40:28.753Z,120.10
2023-06-06T07:41:28.409Z,117.46
2023-06-06T07:42:28.457Z,114.22
2023-06-06T07:43:28.493Z,109.73
2023-06-06T07:44:28.525Z,106.60
2023-06-06T07:45:28.599Z,105.30
2023-06-06T07:46:28.826Z,104.64
2023-06-06T07:47:28.697Z,104.52
2023-06-06T07:48:28.740Z,101.91
2023-06-06T07:49:28.792Z,101.04
2023-06-06T07:50:28.894Z,95.29
2023-06-06T07:51:28.903Z,91.94
2023-06-06T07:52:28.947Z,89.60
2023-06-06T07:53:29.041Z,86.16
2023-06-06T07:54:29.021Z,86.19
2023-06-06T07:55:29.072Z,78.33
2023-06-06T07:56:29.082Z,73.97
2023-06-06T07:57:29.144Z,70.05
2023-06-06T07:58:29.206Z,68.01
2023-06-06T07:59:29.283Z,68.88
2023-06-06T08:00:29.335Z,66.37
2023-06-06T08:01:29.400Z,63.53
2023-06-06T08:02:29.544Z,68.51
2023-06-06T08:03:29.558Z,68.12
2023-06-06T08:04:29.622Z,71.75
2023-06-06T08:05:29.672Z,75.05
2023-06-06T08:06:29.699Z,77.68
2023-06-06T08:07:31.823Z,80.89
2023-06-06T08:08:29.828Z,79.05
2023-06-06T08:09:30.120Z,68.31
2023-06-06T08:10:29.882Z,64.47
2023-06-06T08:11:29.906Z,64.23
2023-06-06T08:12:29.926Z,63.80
2023-06-06T08:13:29.978Z,69.13
2023-06-06T08:14:30.042Z,69.12
2023-06-06T08:15:30.151Z,65.28
2023-06-06T08:16:30.161Z,62.55
2023-06-06T08:17:30.280Z,62.18
2023-06-06T08:18:30.353Z,55.55
2023-06-06T08:19:30.318Z,55.09
2023-06-06T08:20:30.849Z,48.95
2023-06-06T08:21:30.414Z,51.65
2023-06-06T08:22:30.518Z,57.53
2023-06-06T08:23:30.506Z,75.40
2023-06-06T08:24:30.552Z,92.29
2023-06-06T08:25:30.910Z,117.38
2023-06-06T08:26:30.625Z,134.71
2023-06-06T08:27:30.650Z,147.76
2023-06-06T08:28:30.713Z,149.34
2023-06-06T08:29:30.697Z,154.74
2023-06-06T08:30:30.728Z,159.10
2023-06-06T08:31:30.840Z,157.37
2023-06-06T08:32:30.791Z,155.98
2023-06-06T08:33:30.799Z,152.35
2023-06-06T08:34:30.843Z,150.21
2023-06-06T08:35:30.890Z,152.51
2023-06-06T08:36:30.912Z,152.95
2023-06-06T08:37:30.962Z,151.66
2023-06-06T08:38:30.981Z,146.24
2023-06-06T08:39:31.259Z,138.38
2023-06-06T08:40:31.065Z,137.41
2023-06-06T08:41:31.136Z,146.62
2023-06-06T08:42:31.108Z,154.41
2023-06-06T08:43:31.121Z,164.29
2023-06-06T08:44:31.150Z,172.16
2023-06-06T08:45:31.212Z,173.21
2023-06-06T08:46:31.285Z,175.57
2023-06-06T08:47:31.284Z,177.16
2023-06-06T08:48:31.270Z,187.74
2023-06-06T08:49:31.258Z,181.61
2023-06-06T08:50:31.257Z,175.93
2023-06-06T08:51:31.262Z,185.17
2023-06-06T08:52:31.293Z,188.93
2023-06-06T08:53:31.302Z,183.95
2023-06-06T08:54:31.309Z,186.39
2023-06-06T08:55:31.345Z,178.19
2023-06-06T08:56:31.367Z,182.56
2023-06-06T08:57:31.480Z,189.39
2023-06-06T08:58:31.450Z,194.61
2023-06-06T08:59:31.493Z,194.73
2023-06-06T09:00:31.587Z,187.87
2023-06-06T09:01:31.645Z,184.61
2023-06-06T09:02:31.685Z,190.68
2023-06-06T09:03:34.055Z,197.76
2023-06-06T09:04:31.634Z,197.95
2023-06-06T09:05:31.829Z,198.90
2023-06-06T09:06:31.654Z,200.93
2023-06-06T09:07:31.645Z,201.64
2023-06-06T09:08:31.629Z,203.00
2023-06-06T09:09:31.615Z,210.45
2023-06-06T09:10:31.779Z,206.05
2023-06-06T09:11:31.619Z,208.76
2023-06-06T09:12:31.640Z,205.40
2023-06-06T09:13:31.662Z,208.50
2023-06-06T09:14:31.578Z,210.42
2023-06-06T09:15:31.812Z,210.97
2023-06-06T09:16:31.612Z,213.03
2023-06-06T09:17:31.592Z,216.03
2023-06-06T09:18:31.581Z,217.90
2023-06-06T09:19:31.557Z,217.98
2023-06-06T09:20:31.840Z,218.94
2023-06-06T09:21:31.555Z,218.81
2023-06-06T09:22:31.526Z,212.73
2023-06-06T09:23:31.613Z,204.55
2023-06-06T09:24:31.579Z,201.67
2023-06-06T09:25:31.618Z,195.91
2023-06-06T09:26:31.554Z,193.39
2023-06-06T09:27:31.513Z,181.27
2023-06-06T09:28:31.490Z,192.09
2023-06-06T09:29:31.601Z,209.27
2023-06-06T09:30:31.818Z,211.95
2023-06-06T09:31:32.069Z,204.75
2023-06-06T09:32:32.029Z,187.24
2023-06-06T09:33:31.874Z,185.30
2023-06-06T09:34:31.831Z,161.42
2023-06-06T09:35:31.900Z,124.20
2023-06-06T09:36:31.940Z,110.05
2023-06-06T09:37:32.041Z,93.51
2023-06-06T09:38:32.060Z,77.41
2023-06-06T09:39:32.081Z,71.25
2023-06-06T09:40:32.339Z,73.59
2023-06-06T09:41:32.204Z,68.99
2023-06-06T09:42:32.216Z,71.45
2023-06-06T09:43:32.286Z,65.62
2023-06-06T09:44:32.341Z,66.57
2023-06-06T09:45:32.499Z,63.42
2023-06-06T09:46:32.561Z,58.62
2023-06-06T09:47:32.752Z,57.67
2023-06-06T09:48:32.565Z,65.97
2023-06-06T09:49:32.635Z,69.36
2023-06-06T09:50:32.843Z,71.14
2023-06-06T09:51:33.022Z,71.73
2023-06-06T09:52:32.825Z,77.85
2023-06-06T09:53:33.205Z,79.13
2023-06-06T09:54:32.942Z,81.46
2023-06-06T09:55:33.316Z,80.93
2023-06-06T09:56:33.029Z,76.86
2023-06-06T09:57:33.321Z,78.72
2023-06-06T09:58:33.146Z,78.79
2023-06-06T09:59:33.190Z,82.08
2023-06-06T10:00:33.306Z,80.13
2023-06-06T10:01:33.356Z,80.15
2023-06-06T10:02:34.180Z,81.20
2023-06-06T10:03:33.604Z,74.57
2023-06-06T10:04:33.523Z,68.12
2023-06-06T10:05:33.494Z,66.41
2023-06-06T10:06:33.540Z,59.33
2023-06-06T10:07:33.605Z,54.73
2023-06-06T10:08:33.626Z,46.39
2023-06-06T10:09:33.809Z,44.12
2023-06-06T10:10:33.882Z,41.84
2023-06-06T10:11:33.758Z,35.83
2023-06-06T10:12:33.846Z,32.58
2023-06-06T10:13:33.873Z,29.23
2023-06-06T10:14:33.953Z,33.35
2023-06-06T10:15:34.000Z,27.81
2023-06-06T10:16:34.034Z,24.72
2023-06-06T10:17:34.103Z,28.98
2023-06-06T10:18:34.112Z,27.98
2023-06-06T10:19:34.166Z,26.44
2023-06-06T10:20:34.331Z,34.01
2023-06-06T10:21:34.269Z,25.19
2023-06-06T10:22:34.311Z,30.09
2023-06-06T10:23:34.504Z,25.00
2023-06-06T10:24:35.683Z,24.90
2023-06-06T10:25:34.817Z,21.75
2023-06-06T10:26:34.435Z,27.07
2023-06-06T10:27:34.486Z,30.93
2023-06-06T10:28:34.407Z,27.61
2023-06-06T10:29:34.428Z,25.00
2023-06-06T10:30:34.829Z,30.42
2023-06-06T10:31:34.406Z,40.48
2023-06-06T10:32:34.396Z,42.45
2023-06-06T10:33:34.449Z,50.62
2023-06-06T10:34:34.361Z,53.90
2023-06-06T10:35:34.831Z,62.57
2023-06-06T10:36:34.331Z,69.51
2023-06-06T10:37:34.334Z,81.52
2023-06-06T10:38:34.306Z,89.08
2023-06-06T10:39:34.314Z,90.56
2023-06-06T10:40:34.353Z,92.64
2023-06-06T10:41:34.291Z,100.65
2023-06-06T10:42:34.296Z,106.74
2023-06-06T10:43:35.094Z,111.32
2023-06-06T10:44:34.273Z,111.92
2023-06-06T10:45:34.274Z,112.76
2023-06-06T10:46:34.326Z,109.70
2023-06-06T10:47:34.606Z,109.77
2023-06-06T10:48:34.302Z,109.87
2023-06-06T10:49:34.302Z,116.81
2023-06-06T10:50:34.303Z,115.74
2023-06-06T10:51:34.275Z,113.24
2023-06-06T10:52:34.265Z,106.42
2023-06-06T10:53:34.253Z,112.62
2023-06-06T10:54:34.263Z,115.28
2023-06-06T10:55:34.333Z,114.67
2023-06-06T10:56:34.290Z,116.20
2023-06-06T10:57:34.294Z,117.39
2023-06-06T10:58:34.348Z,119.72
2023-06-06T10:59:34.384Z,118.63
2023-06-06T11:00:34.451Z,115.74
2023-06-06T11:01:34.591Z,115.45
2023-06-06T11:02:34.688Z,115.04
2023-06-06T11:03:34.780Z,108.81
2023-06-06T11:04:34.695Z,109.33
2023-06-06T11:05:34.866Z,113.97
2023-06-06T11:06:34.822Z,111.89
2023-06-06T11:07:34.896Z,108.47
2023-06-06T11:08:34.997Z,105.89
2023-06-06T11:09:35.080Z,106.80
2023-06-06T11:10:35.365Z,104.41
2023-06-06T11:11:35.094Z,101.59
2023-06-06T11:12:35.166Z,104.18
2023-06-06T11:13:35.381Z,101.67
2023-06-06T11:14:35.289Z,97.87
2023-06-06T11:15:35.304Z,95.82
2023-06-06T11:16:35.585Z,92.89
2023-06-06T11:17:35.501Z,91.36
2023-06-06T11:18:35.443Z,84.26
2023-06-06T11:19:35.512Z,66.58
2023-06-06T11:20:35.564Z,51.72
2023-06-06T11:21:35.772Z,53.66
2023-06-06T11:22:35.633Z,58.84
2023-06-06T11:23:35.735Z,69.65
2023-06-06T11:24:35.766Z,68.57
2023-06-06T11:25:35.835Z,43.58
2023-06-06T11:26:35.866Z,42.98
2023-06-06T11:27:35.980Z,47.99
2023-06-06T11:28:35.954Z,49.61
2023-06-06T11:29:36.007Z,58.72
2023-06-06T11:30:36.114Z,58.94
2023-06-06T11:31:36.157Z,54.04
2023-06-06T11:32:36.178Z,49.12
2023-06-06T11:33:36.201Z,53.12
2023-06-06T11:34:36.217Z,54.08
2023-06-06T11:35:36.289Z,44.38
2023-06-06T11:36:36.290Z,38.21
2023-06-06T11:37:36.362Z,26.47
2023-06-06T11:38:36.409Z,28.97
2023-06-06T11:39:36.470Z,29.91
2023-06-06T11:40:36.543Z,39.97
2023-06-06T11:41:36.512Z,40.67
2023-06-06T11:42:36.574Z,29.96
2023-06-06T11:43:36.653Z,23.92
2023-06-06T11:44:36.644Z,25.00
2023-06-06T11:45:36.709Z,23.93
2023-06-06T11:46:36.821Z,25.00
2023-06-06T11:47:36.836Z,33.49
2023-06-06T11:48:36.885Z,22.65
2023-06-06T11:49:36.905Z,28.10
2023-06-06T11:50:36.973Z,33.49
2023-06-06T11:51:36.992Z,28.39
2023-06-06T11:52:37.054Z,35.68
2023-06-06T11:53:37.115Z,31.20
2023-06-06T11:54:37.127Z,31.10
2023-06-06T11:55:37.185Z,24.39
2023-06-06T11:56:37.415Z,25.46
2023-06-06T11:57:37.292Z,28.42
2023-06-06T11:58:37.340Z,26.20
2023-06-06T11:59:37.388Z,24.13
2023-06-06T12:00:37.450Z,26.60
2023-06-06T12:01:37.494Z,36.22
2023-06-06T12:02:37.641Z,30.02
2023-06-06T12:03:37.705Z,32.52
2023-06-06T12:04:37.663Z,28.61
2023-06-06T12:05:37.802Z,27.64
2023-06-06T12:06:37.733Z,28.75
2023-06-06T12:07:37.757Z,43.25
2023-06-06T12:08:37.800Z,48.44
2023-06-06T12:09:37.954Z,72.35
2023-06-06T12:10:37.903Z,91.94
2023-06-06T12:11:37.939Z,100.07
2023-06-06T12:12:37.998Z,109.48
2023-06-06T12:13:38.027Z,100.85
2023-06-06T12:14:38.081Z,92.53
2023-06-06T12:15:38.355Z,69.97
2023-06-06T12:16:38.198Z,66.46
2023-06-06T12:17:38.242Z,71.47
2023-06-06T12:18:38.270Z,82.92
2023-06-06T12:19:38.307Z,96.10
2023-06-06T12:20:38.374Z,97.02
2023-06-06T12:21:38.435Z,107.93
2023-06-06T12:22:38.497Z,113.32
2023-06-06T12:23:38.560Z,103.68
2023-06-06T12:24:38.608Z,104.40
2023-06-06T12:25:38.711Z,115.53
2023-06-06T12:26:38.743Z,117.34
2023-06-06T12:27:38.790Z,116.00
2023-06-06T12:28:38.854Z,110.78
2023-06-06T12:29:38.890Z,119.80
2023-06-06T12:30:38.944Z,127.71
2023-06-06T12:31:39.028Z,133.50
2023-06-06T12:32:39.089Z,139.49
2023-06-06T12:33:39.132Z,143.31
2023-06-06T12:34:39.179Z,140.21